createdAt,value
2023-05-19T00:00:10.927Z,12.08
2023-05-19T00:01:10.931Z,12.26
2023-05-19T00:02:10.974Z,12.31
2023-05-19T00:03:11.045Z,12.32
2023-05-19T00:04:10.961Z,12.33
2023-05-19T00:05:10.966Z,12.27
2023-05-19T00:06:11.024Z,12.29
2023-05-19T00:07:10.882Z,12.23
2023-05-19T00:08:10.976Z,12.00
2023-05-19T00:09:10.904Z,11.98
2023-05-19T00:10:10.895Z,12.02
2023-05-19T00:11:10.875Z,12.05
2023-05-19T00:12:10.908Z,12.06
2023-05-19T00:13:10.869Z,12.21
2023-05-19T00:14:10.908Z,12.44
2023-05-19T00:15:10.828Z,12.57
2023-05-19T00:16:10.847Z,12.61
2023-05-19T00:17:10.803Z,12.55
2023-05-19T00:18:10.956Z,12.50
2023-05-19T00:19:10.927Z,12.50
2023-05-19T00:20:10.894Z,12.42
2023-05-19T00:21:10.960Z,12.37
2023-05-19T00:22:10.866Z,12.30
2023-05-19T00:23:11.308Z,12.23
2023-05-19T00:25:30.953Z,12.12
2023-05-19T00:27:50.427Z,12.20
2023-05-19T00:32:09.201Z,11.90
2023-05-19T00:33:09.041Z,11.95
2023-05-19T00:34:08.912Z,11.86
2023-05-19T00:35:09.517Z,11.86
2023-05-19T00:36:08.930Z,11.84
2023-05-19T00:37:09.543Z,11.82
2023-05-19T00:38:08.928Z,11.70
2023-05-19T00:39:08.863Z,11.82
2023-05-19T00:40:08.944Z,11.91
2023-05-19T00:41:08.887Z,11.97
2023-05-19T00:42:09.521Z,11.99
2023-05-19T00:43:08.951Z,11.93
2023-05-19T00:44:09.376Z,11.89
2023-05-19T00:45:08.865Z,11.69
2023-05-19T00:46:08.919Z,11.69
2023-05-19T00:47:08.873Z,11.66
2023-05-19T00:48:08.821Z,11.67
2023-05-19T00:49:08.791Z,11.64
2023-05-19T00:50:08.753Z,11.70
2023-05-19T00:51:09.521Z,11.72
2023-05-19T00:52:08.755Z,11.85
2023-05-19T00:53:08.798Z,12.04
2023-05-19T00:54:08.743Z,12.17
2023-05-19T00:55:08.740Z,12.17
2023-05-19T00:58:18.333Z,11.83
2023-05-19T01:06:07.014Z,11.58
2023-05-19T01:07:06.637Z,11.76
2023-05-19T01:08:06.660Z,11.77
2023-05-19T01:09:06.661Z,11.78
2023-05-19T01:10:06.664Z,11.80
2023-05-19T01:12:26.915Z,11.72
2023-05-19T01:18:13.879Z,11.34
2023-05-19T01:19:01.468Z,11.44
2023-05-19T01:20:01.417Z,11.44
2023-05-19T01:21:01.421Z,11.46
2023-05-19T01:22:01.524Z,11.49
2023-05-19T01:23:03.205Z,11.46
2023-05-19T01:24:01.622Z,11.34
2023-05-19T01:26:20.915Z,11.12
2023-05-19T01:30:30.442Z,10.88
2023-05-19T01:31:30.229Z,11.06
2023-05-19T01:34:25.132Z,11.05
2023-05-19T01:35:25.378Z,11.06
2023-05-19T01:36:31.018Z,11.08
2023-05-19T01:39:02.023Z,10.89
2023-05-19T01:43:21.414Z,10.89
2023-05-19T01:46:29.634Z,10.63
2023-05-19T01:48:49.613Z,10.86
2023-05-19T01:49:48.738Z,10.95
2023-05-19T01:50:49.694Z,10.96
2023-05-19T01:51:48.950Z,10.97
2023-05-19T01:52:48.638Z,10.95
2023-05-19T01:55:47.507Z,10.75
2023-05-19T01:58:06.406Z,10.85
2023-05-19T01:59:06.401Z,10.85
2023-05-19T02:00:06.335Z,10.86
2023-05-19T02:01:06.407Z,10.88
2023-05-19T02:02:06.383Z,10.90
2023-05-19T02:03:06.347Z,10.89
2023-05-19T02:04:06.370Z,10.88
2023-05-19T02:05:06.935Z,10.89
2023-05-19T02:07:25.981Z,10.84
2023-05-19T02:10:52.925Z,10.55
2023-05-19T02:11:52.174Z,10.68
2023-05-19T02:12:52.150Z,10.68
2023-05-19T02:16:05.337Z,10.28
2023-05-19T02:16:52.243Z,10.45
2023-05-19T02:17:52.434Z,10.46
2023-05-19T02:18:52.329Z,10.46
2023-05-19T02:19:52.265Z,10.52
2023-05-19T02:20:52.340Z,10.53
2023-05-19T02:21:52.280Z,10.54
2023-05-19T02:22:52.403Z,10.51
2023-05-19T02:23:52.252Z,10.46
2023-05-19T02:24:52.848Z,10.48
2023-05-19T02:25:52.300Z,10.48
2023-05-19T02:26:52.198Z,10.48
2023-05-19T02:27:53.195Z,10.49
2023-05-19T02:28:52.181Z,10.51
2023-05-19T02:29:52.203Z,10.54
2023-05-19T02:30:52.218Z,10.53
2023-05-19T02:31:52.212Z,10.54
2023-05-19T02:32:52.153Z,10.50
2023-05-19T02:33:52.150Z,10.47
2023-05-19T02:34:52.154Z,10.43
2023-05-19T02:35:52.176Z,10.44
2023-05-19T02:36:53.167Z,10.40
2023-05-19T02:37:52.917Z,10.35
2023-05-19T02:38:52.169Z,10.36
2023-05-19T02:39:52.777Z,10.35
2023-05-19T02:42:12.878Z,10.26
2023-05-19T02:44:32.527Z,10.31
2023-05-19T02:55:01.505Z,10.12
2023-05-19T03:05:07.998Z,9.98
2023-05-19T03:06:07.831Z,10.06
2023-05-19T03:07:07.785Z,10.11
2023-05-19T03:08:07.674Z,10.16
2023-05-19T03:09:07.676Z,10.18
2023-05-19T03:10:07.669Z,10.21
2023-05-19T03:11:07.684Z,10.21
2023-05-19T03:12:07.818Z,10.19
2023-05-19T03:13:07.638Z,10.21
2023-05-19T03:14:07.643Z,10.24
2023-05-19T03:15:07.637Z,10.27
2023-05-19T03:16:07.698Z,10.24
2023-05-19T03:17:07.772Z,10.17
2023-05-19T03:18:07.639Z,10.22
2023-05-19T03:19:07.592Z,10.25
2023-05-19T03:20:07.615Z,10.26
2023-05-19T03:21:07.635Z,10.25
2023-05-19T03:22:07.737Z,10.25
2023-05-19T03:23:07.741Z,10.26
2023-05-19T03:28:52.650Z,10.03
2023-05-19T03:32:02.122Z,9.96
2023-05-19T03:34:21.479Z,10.14
2023-05-19T03:35:21.549Z,10.17
2023-05-19T03:36:21.626Z,10.17
2023-05-19T03:37:21.446Z,10.17
2023-05-19T03:38:21.357Z,10.18
2023-05-19T03:39:21.410Z,10.21
2023-05-19T03:40:21.327Z,10.23
2023-05-19T03:41:21.378Z,10.26
2023-05-19T03:42:21.331Z,10.28
2023-05-19T03:43:21.395Z,10.30
2023-05-19T03:44:21.385Z,10.30
2023-05-19T03:45:21.311Z,10.33
2023-05-19T03:46:21.559Z,10.35
2023-05-19T03:47:21.315Z,10.39
2023-05-19T03:48:22.026Z,10.41
2023-05-19T03:49:21.292Z,10.44
2023-05-19T03:50:21.289Z,10.43
2023-05-19T03:51:21.332Z,10.32
2023-05-19T03:52:21.299Z,10.26
2023-05-19T03:53:21.307Z,10.23
2023-05-19T03:54:21.295Z,10.19
2023-05-19T03:55:21.313Z,10.23
2023-05-19T03:56:21.240Z,10.23
2023-05-19T03:57:22.292Z,10.22
2023-05-19T03:58:21.248Z,10.19
2023-05-19T03:59:21.220Z,10.15
2023-05-19T04:00:21.244Z,10.17
2023-05-19T04:01:21.220Z,10.18
2023-05-19T04:02:22.154Z,10.16
2023-05-19T04:03:21.420Z,10.09
2023-05-19T04:04:21.233Z,10.04
2023-05-19T04:05:21.202Z,10.06
2023-05-19T04:06:21.213Z,10.09
2023-05-19T04:07:21.149Z,10.09
2023-05-19T04:08:21.181Z,10.03
2023-05-19T04:09:21.158Z,10.04
2023-05-19T04:10:21.126Z,10.09
2023-05-19T04:11:21.125Z,10.11
2023-05-19T04:12:21.236Z,10.15
2023-05-19T04:13:21.209Z,10.13
2023-05-19T04:14:21.301Z,10.11
2023-05-19T04:15:21.308Z,10.11
2023-05-19T04:16:21.491Z,10.14
2023-05-19T04:17:21.459Z,10.18
2023-05-19T04:18:21.435Z,10.21
2023-05-19T04:19:21.549Z,10.22
2023-05-19T04:20:22.239Z,10.21
2023-05-19T04:21:21.699Z,10.16
2023-05-19T04:22:21.606Z,10.16
2023-05-19T04:23:21.614Z,10.18
2023-05-19T04:24:21.668Z,10.25
2023-05-19T04:25:21.738Z,10.34
2023-05-19T04:26:21.738Z,10.39
2023-05-19T04:27:21.783Z,10.31
2023-05-19T04:28:21.811Z,10.26
2023-05-19T04:29:21.894Z,10.31
2023-05-19T04:30:21.831Z,10.37
2023-05-19T04:31:21.972Z,10.43
2023-05-19T04:32:21.955Z,10.43
2023-05-19T04:33:21.982Z,10.46
2023-05-19T04:34:22.025Z,10.50
2023-05-19T04:35:22.092Z,10.66
2023-05-19T04:36:22.120Z,10.74
2023-05-19T04:41:32.661Z,10.43
2023-05-19T04:46:42.911Z,11.35
2023-05-19T04:49:54.082Z,10.90
2023-05-19T04:55:03.567Z,10.69
2023-05-19T04:56:03.349Z,10.87
2023-05-19T04:57:03.646Z,10.84
2023-05-19T05:02:46.895Z,10.76
2023-05-19T05:03:46.804Z,10.94
2023-05-19T05:04:52.341Z,10.97
2023-05-19T05:05:47.328Z,11.01
2023-05-19T05:12:08.947Z,11.07
2023-05-19T05:13:11.142Z,11.13
2023-05-19T05:15:28.390Z,11.10
2023-05-19T05:22:06.228Z,11.01
2023-05-19T05:23:06.020Z,11.05
2023-05-19T05:24:06.484Z,11.24
2023-05-19T05:27:21.305Z,11.20
2023-05-19T05:28:11.392Z,11.30
2023-05-19T05:29:11.859Z,11.28
2023-05-19T05:32:22.711Z,11.02
2023-05-19T05:34:42.516Z,11.18
2023-05-19T05:40:09.159Z,11.22
2023-05-19T05:41:08.915Z,11.45
2023-05-19T05:46:53.935Z,11.07
2023-05-19T05:49:28.315Z,11.22
2023-05-19T05:52:16.945Z,11.51
2023-05-19T05:57:53.843Z,11.61
2023-05-19T05:58:40.468Z,11.73
2023-05-19T05:59:40.466Z,11.81
2023-05-19T06:00:41.940Z,11.79
2023-05-19T06:03:01.063Z,12.06
2023-05-19T06:07:22.163Z,12.08
2023-05-19T06:08:12.031Z,12.18
2023-05-19T06:10:32.659Z,12.22
2023-05-19T06:13:31.016Z,12.16
2023-05-19T06:17:02.999Z,12.33
2023-05-19T06:18:02.602Z,12.73
2023-05-19T06:19:02.843Z,12.88
2023-05-19T06:20:02.571Z,12.90
2023-05-19T06:25:16.309Z,12.92
2023-05-19T06:26:16.072Z,12.95
2023-05-19T06:29:44.581Z,12.86
2023-05-19T06:30:31.313Z,13.16
2023-05-19T06:35:36.827Z,13.05
2023-05-19T06:40:37.588Z,13.33
2023-05-19T06:41:37.193Z,13.45
2023-05-19T06:42:37.039Z,13.51
2023-05-19T06:47:44.667Z,13.43
2023-05-19T06:52:04.351Z,13.60
2023-05-19T06:53:02.992Z,13.73
2023-05-19T06:54:03.216Z,13.87
2023-05-19T06:56:37.801Z,13.91
2023-05-19T06:57:24.850Z,14.19
2023-05-19T06:58:24.858Z,14.31
2023-05-19T06:59:24.861Z,14.42
2023-05-19T07:00:24.868Z,14.47
2023-05-19T07:01:25.107Z,14.40
2023-05-19T07:02:25.076Z,14.31
2023-05-19T07:03:24.997Z,14.24
2023-05-19T07:04:24.847Z,14.24
2023-05-19T07:05:24.887Z,14.30
2023-05-19T07:06:24.816Z,14.38
2023-05-19T07:07:24.814Z,14.41
2023-05-19T07:08:24.777Z,14.37
2023-05-19T07:09:24.721Z,14.32
2023-05-19T07:10:24.827Z,14.26
2023-05-19T07:11:24.800Z,14.23
2023-05-19T07:12:24.766Z,14.38
2023-05-19T07:13:27.232Z,14.41
2023-05-19T07:26:16.536Z,15.11
2023-05-19T07:27:01.775Z,15.52
2023-05-19T07:29:21.364Z,15.75
2023-05-19T07:30:21.413Z,15.88
2023-05-19T07:31:21.527Z,16.05
2023-05-19T07:32:21.584Z,16.04
2023-05-19T07:36:43.244Z,15.84
2023-05-19T07:37:42.528Z,16.07
2023-05-19T07:38:42.605Z,16.10
2023-05-19T07:39:43.134Z,16.13
2023-05-19T07:40:42.995Z,16.20
2023-05-19T07:41:42.624Z,16.36
2023-05-19T07:42:42.451Z,16.54
2023-05-19T07:43:42.482Z,16.76
2023-05-19T07:44:42.465Z,17.07
2023-05-19T07:45:42.514Z,17.33
2023-05-19T07:46:42.501Z,17.52
2023-05-19T07:47:43.470Z,17.97
2023-05-19T07:50:30.829Z,18.36
2023-05-19T07:52:50.473Z,18.94
2023-05-19T07:53:50.009Z,18.94
2023-05-19T07:54:50.259Z,18.90
2023-05-19T07:55:50.206Z,18.64
2023-05-19T07:56:50.037Z,18.82
2023-05-19T07:57:50.094Z,18.60
2023-05-19T07:58:50.033Z,18.91
2023-05-19T07:59:49.956Z,18.75
2023-05-19T08:00:50.042Z,18.90
2023-05-19T08:01:50.003Z,19.21
2023-05-19T08:02:50.075Z,19.76
2023-05-19T08:03:50.169Z,19.76
2023-05-19T08:04:50.092Z,19.83
2023-05-19T08:05:50.059Z,19.45
2023-05-19T08:06:49.901Z,19.34
2023-05-19T08:07:49.907Z,19.32
2023-05-19T08:08:49.905Z,18.97
2023-05-19T08:09:49.896Z,18.94
2023-05-19T08:10:50.194Z,18.78
2023-05-19T08:11:49.898Z,18.37
2023-05-19T08:12:49.949Z,18.15
2023-05-19T08:13:49.928Z,18.26
2023-05-19T08:14:49.929Z,18.28
2023-05-19T08:15:50.001Z,18.39
2023-05-19T08:16:50.759Z,18.42
2023-05-19T08:17:49.892Z,18.40
2023-05-19T08:18:50.779Z,18.51
2023-05-19T08:19:50.750Z,18.63
2023-05-19T08:20:49.883Z,18.49
2023-05-19T08:21:50.817Z,18.59
2023-05-19T08:22:49.792Z,18.96
2023-05-19T08:23:49.822Z,19.43
2023-05-19T08:24:52.832Z,19.65
2023-05-19T08:25:49.788Z,19.64
2023-05-19T08:26:49.772Z,19.76
2023-05-19T08:27:50.759Z,19.64
2023-05-19T08:28:50.393Z,19.64
2023-05-19T08:31:09.129Z,21.02
2023-05-19T08:35:44.548Z,22.72
2023-05-19T08:38:19.309Z,22.49
2023-05-19T08:39:32.915Z,22.48
2023-05-19T08:40:20.734Z,22.47
2023-05-19T08:44:02.438Z,22.15
2023-05-19T08:44:48.077Z,22.29
2023-05-19T08:47:43.801Z,22.17
2023-05-19T08:51:06.444Z,22.50
2023-05-19T08:52:05.428Z,22.65
2023-05-19T08:53:05.451Z,22.62
2023-05-19T08:54:05.328Z,22.33
2023-05-19T08:56:57.398Z,21.96
2023-05-19T08:59:16.623Z,20.22
2023-05-19T09:00:16.101Z,20.30
2023-05-19T09:04:07.078Z,19.88
2023-05-19T09:09:37.015Z,21.10
2023-05-19T09:10:36.064Z,21.42
2023-05-19T09:11:36.053Z,21.56
2023-05-19T09:12:36.005Z,21.44
2023-05-19T09:13:36.018Z,21.43
2023-05-19T09:14:36.151Z,21.77
2023-05-19T09:15:36.188Z,21.83
2023-05-19T09:16:36.277Z,21.98
2023-05-19T09:17:36.272Z,22.23
2023-05-19T09:18:36.249Z,22.43
2023-05-19T09:19:36.121Z,22.87
2023-05-19T09:24:33.703Z,21.73
2023-05-19T09:25:33.815Z,21.72
2023-05-19T09:26:33.656Z,21.73
2023-05-19T09:27:33.546Z,21.71
2023-05-19T09:28:33.634Z,21.76
2023-05-19T09:29:33.847Z,21.92
2023-05-19T09:30:33.573Z,22.05
2023-05-19T09:40:23.932Z,24.54
2023-05-19T09:41:13.737Z,24.58
2023-05-19T09:42:13.774Z,24.18
2023-05-19T09:43:14.422Z,24.07
2023-05-19T09:44:13.710Z,24.09
2023-05-19T09:45:14.533Z,24.55
2023-05-19T09:46:14.997Z,24.80
2023-05-19T09:47:13.688Z,24.52
2023-05-19T09:48:13.716Z,24.59
2023-05-19T09:49:13.701Z,24.95
2023-05-19T09:50:16.714Z,25.26
2023-05-19T09:56:45.644Z,27.40
2023-05-19T09:57:45.140Z,28.16
2023-05-19T09:58:44.794Z,28.81
2023-05-19T09:59:45.046Z,29.29
2023-05-19T10:02:45.599Z,29.24
2023-05-19T10:03:44.709Z,29.55
2023-05-19T10:04:44.750Z,29.82
2023-05-19T10:08:11.067Z,29.03
2023-05-19T10:09:11.136Z,28.75
2023-05-19T10:10:12.152Z,28.37
2023-05-19T10:11:11.588Z,28.04
2023-05-19T10:12:11.070Z,28.02
2023-05-19T10:13:11.481Z,28.39
2023-05-19T10:14:11.005Z,28.78
2023-05-19T10:15:11.518Z,29.16
2023-05-19T10:20:52.499Z,29.52
2023-05-19T10:21:52.319Z,29.20
2023-05-19T10:22:52.175Z,28.78
2023-05-19T10:23:52.211Z,28.99
2023-05-19T10:24:52.223Z,28.65
2023-05-19T10:25:52.234Z,28.92
2023-05-19T10:26:52.232Z,28.12
2023-05-19T10:27:52.247Z,26.48
2023-05-19T10:28:52.389Z,25.74
2023-05-19T10:29:52.742Z,26.53
2023-05-19T10:30:52.170Z,26.08
2023-05-19T10:31:52.246Z,26.18
2023-05-19T10:32:52.245Z,26.45
2023-05-19T10:33:52.200Z,27.06
2023-05-19T10:34:52.248Z,27.33
2023-05-19T10:35:52.144Z,27.63
2023-05-19T10:36:52.130Z,27.59
2023-05-19T10:37:52.121Z,27.88
2023-05-19T10:38:52.089Z,28.16
2023-05-19T10:39:52.819Z,28.17
2023-05-19T10:40:52.204Z,27.99
2023-05-19T10:41:52.193Z,27.74
2023-05-19T10:42:52.212Z,27.06
2023-05-19T10:43:52.261Z,26.71
2023-05-19T10:44:52.334Z,27.45
2023-05-19T10:45:52.378Z,27.12
2023-05-19T10:46:54.155Z,27.33
2023-05-19T10:47:52.461Z,27.37
2023-05-19T10:48:52.366Z,27.59
2023-05-19T10:49:52.409Z,27.80
2023-05-19T10:50:52.415Z,27.83
2023-05-19T10:51:52.335Z,26.71
2023-05-19T10:52:52.364Z,25.82
2023-05-19T10:53:52.313Z,25.57
2023-05-19T10:54:52.297Z,25.60
2023-05-19T10:55:52.343Z,25.91
2023-05-19T10:56:52.335Z,25.89
2023-05-19T10:57:52.360Z,25.89
2023-05-19T10:58:52.386Z,25.73
2023-05-19T10:59:52.285Z,25.79
2023-05-19T11:00:52.281Z,26.15
2023-05-19T11:01:52.351Z,26.65
2023-05-19T11:02:52.918Z,25.97
2023-05-19T11:03:52.455Z,24.78
2023-05-19T11:04:52.361Z,24.11
2023-05-19T11:05:52.287Z,23.60
2023-05-19T11:06:52.273Z,23.50
2023-05-19T11:07:52.238Z,23.96
2023-05-19T11:08:52.289Z,24.61
2023-05-19T11:09:52.204Z,25.19
2023-05-19T11:10:52.200Z,24.99
2023-05-19T11:11:52.297Z,25.42
2023-05-19T11:12:52.317Z,25.92
2023-05-19T11:13:52.246Z,26.06
2023-05-19T11:14:52.228Z,26.38
2023-05-19T11:15:52.191Z,26.23
2023-05-19T11:16:52.241Z,26.88
2023-05-19T11:17:52.306Z,27.30
2023-05-19T11:18:52.202Z,27.06
2023-05-19T11:19:52.160Z,27.06
2023-05-19T11:20:52.225Z,27.25
2023-05-19T11:21:52.153Z,26.92
2023-05-19T11:22:52.205Z,27.05
2023-05-19T11:23:52.156Z,26.74
2023-05-19T11:24:52.236Z,26.58
2023-05-19T11:27:11.089Z,26.68
2023-05-19T11:28:11.071Z,26.14
2023-05-19T11:29:11.020Z,26.18
2023-05-19T11:30:11.074Z,26.71
2023-05-19T11:34:51.096Z,25.65
2023-05-19T11:35:51.143Z,26.00
2023-05-19T11:38:14.464Z,26.19
2023-05-19T11:42:40.961Z,26.39
2023-05-19T11:43:27.998Z,26.55
2023-05-19T11:50:56.980Z,24.42
2023-05-19T11:51:46.649Z,23.93
2023-05-19T11:52:46.658Z,24.23
2023-05-19T11:55:05.791Z,24.29
2023-05-19T11:56:05.805Z,23.57
2023-05-19T11:57:05.953Z,22.64
2023-05-19T11:58:06.120Z,21.77
2023-05-19T11:59:05.701Z,21.57
2023-05-19T12:00:05.667Z,21.91
2023-05-19T12:01:05.602Z,22.45
2023-05-19T12:02:05.609Z,22.86
2023-05-19T12:03:05.951Z,22.95
2023-05-19T12:04:05.723Z,23.21
2023-05-19T12:05:05.711Z,23.23
2023-05-19T12:06:05.645Z,22.97
2023-05-19T12:07:05.613Z,22.84
2023-05-19T12:08:05.579Z,22.70
2023-05-19T12:09:05.579Z,22.77
2023-05-19T12:10:05.670Z,22.14
2023-05-19T12:11:05.561Z,22.09
2023-05-19T12:12:05.571Z,22.45
2023-05-19T12:13:05.542Z,22.70
2023-05-19T12:14:05.553Z,23.09
2023-05-19T12:15:05.549Z,22.94
2023-05-19T12:16:05.836Z,22.53
2023-05-19T12:17:05.509Z,22.54
2023-05-19T12:18:05.565Z,22.50
2023-05-19T12:21:15.207Z,21.60
2023-05-19T12:22:15.105Z,21.79
2023-05-19T12:23:15.125Z,21.87
2023-05-19T12:24:15.079Z,22.30
2023-05-19T12:30:16.337Z,22.74
2023-05-19T12:31:16.329Z,22.79
2023-05-19T12:32:16.272Z,22.58
2023-05-19T12:33:16.342Z,22.54
2023-05-19T12:34:16.265Z,22.11
2023-05-19T12:37:01.752Z,21.86
2023-05-19T12:45:59.801Z,21.09
2023-05-19T12:46:51.848Z,21.49
2023-05-19T12:50:54.737Z,21.29
2023-05-19T12:51:54.422Z,21.92
2023-05-19T12:52:54.383Z,22.29
2023-05-19T12:59:10.472Z,21.95
2023-05-19T13:01:29.786Z,21.52
2023-05-19T13:02:29.472Z,21.72
2023-05-19T13:03:29.496Z,22.12
2023-05-19T13:04:29.378Z,22.45
2023-05-19T13:05:29.363Z,22.66
2023-05-19T13:06:29.353Z,22.70
2023-05-19T13:11:16.993Z,21.66
2023-05-19T13:12:16.809Z,21.51
2023-05-19T13:13:16.839Z,21.58
2023-05-19T13:14:16.760Z,21.94
2023-05-19T13:17:22.331Z,22.41
2023-05-19T13:18:22.057Z,22.22
2023-05-19T13:19:25.720Z,21.91
2023-05-19T13:22:29.474Z,21.58
2023-05-19T13:23:21.898Z,21.80
2023-05-19T13:24:21.818Z,21.82
2023-05-19T13:25:21.813Z,21.71
2023-05-19T13:26:21.741Z,21.82
2023-05-19T13:27:21.735Z,22.00
2023-05-19T13:28:23.517Z,22.30
2023-05-19T13:29:22.063Z,22.53
2023-05-19T13:30:21.800Z,22.29
2023-05-19T13:31:21.796Z,21.44
2023-05-19T13:32:21.782Z,21.30
2023-05-19T13:33:21.840Z,21.48
2023-05-19T13:34:21.709Z,21.48
2023-05-19T13:35:21.703Z,21.58
2023-05-19T13:36:21.751Z,21.67
2023-05-19T13:37:21.784Z,21.60
2023-05-19T13:38:21.711Z,21.88
2023-05-19T13:39:21.749Z,22.13
2023-05-19T13:40:21.721Z,22.38
2023-05-19T13:41:21.751Z,22.44
2023-05-19T13:42:21.750Z,22.32
2023-05-19T13:51:32.406Z,21.82
2023-05-19T13:52:31.977Z,22.01
2023-05-19T13:56:50.395Z,21.82
2023-05-19T13:59:09.644Z,21.27
2023-05-19T14:00:09.431Z,21.35
2023-05-19T14:01:09.467Z,20.95
2023-05-19T14:02:09.564Z,20.91
2023-05-19T14:04:59.623Z,21.56
2023-05-19T14:07:18.017Z,21.46
2023-05-19T14:08:18.222Z,21.28
2023-05-19T14:09:17.913Z,21.23
2023-05-19T14:10:17.919Z,21.52
2023-05-19T14:11:17.926Z,21.57
2023-05-19T14:12:17.968Z,21.73
2023-05-19T14:13:32.535Z,21.41
2023-05-19T14:14:18.856Z,21.28
2023-05-19T14:15:17.857Z,21.38
2023-05-19T14:16:17.913Z,21.73
2023-05-19T14:17:18.564Z,22.00
2023-05-19T14:18:17.916Z,22.14
2023-05-19T14:19:17.876Z,22.34
2023-05-19T14:20:17.890Z,22.33
2023-05-19T14:21:18.338Z,21.98
2023-05-19T14:24:30.352Z,21.11
2023-05-19T14:27:24.249Z,20.83
2023-05-19T14:28:24.082Z,21.11
2023-05-19T14:30:43.452Z,21.27
2023-05-19T14:31:43.338Z,21.57
2023-05-19T14:34:02.707Z,21.65
2023-05-19T14:35:02.570Z,21.75
2023-05-19T14:36:02.718Z,21.60
2023-05-19T14:38:27.097Z,21.09
2023-05-19T14:50:38.198Z,21.58
2023-05-19T14:51:38.076Z,21.78
2023-05-19T14:52:38.088Z,22.03
2023-05-19T14:53:38.089Z,21.81
2023-05-19T14:54:38.902Z,21.66
2023-05-19T14:55:38.903Z,21.79
2023-05-19T14:56:38.332Z,21.63
2023-05-19T14:57:38.433Z,21.56
2023-05-19T14:58:38.130Z,21.06
2023-05-19T14:59:38.130Z,20.67
2023-05-19T15:00:38.025Z,20.48
2023-05-19T15:01:38.074Z,20.64
2023-05-19T15:02:38.084Z,20.74
2023-05-19T15:03:38.092Z,20.72
2023-05-19T15:04:38.023Z,21.06
2023-05-19T15:05:38.010Z,21.44
2023-05-19T15:09:19.857Z,21.41
2023-05-19T15:12:42.608Z,20.82
2023-05-19T15:16:08.253Z,20.71
2023-05-19T15:16:56.845Z,21.07
2023-05-19T15:17:55.891Z,21.55
2023-05-19T15:18:55.914Z,21.92
2023-05-19T15:19:55.906Z,22.20
2023-05-19T15:20:55.803Z,22.28
2023-05-19T15:26:37.962Z,20.82
2023-05-19T15:27:37.728Z,20.77
2023-05-19T15:28:37.716Z,20.88
2023-05-19T15:29:37.689Z,21.08
2023-05-19T15:30:37.873Z,21.29
2023-05-19T15:31:38.475Z,21.49
2023-05-19T15:32:37.778Z,21.60
2023-05-19T15:33:37.985Z,21.36
2023-05-19T15:36:47.198Z,20.93
2023-05-19T15:42:30.248Z,20.83
2023-05-19T15:43:29.509Z,21.06
2023-05-19T15:44:29.513Z,21.20
2023-05-19T15:45:29.439Z,20.94
2023-05-19T15:46:29.786Z,20.61
2023-05-19T15:47:29.685Z,20.35
2023-05-19T15:49:48.741Z,19.71
2023-05-19T15:56:50.356Z,20.19
2023-05-19T15:57:50.289Z,20.17
2023-05-19T16:00:09.771Z,20.19
2023-05-19T16:05:04.955Z,19.96
2023-05-19T16:07:10.643Z,20.61
2023-05-19T16:08:10.645Z,20.65
2023-05-19T16:09:10.616Z,20.34
2023-05-19T16:12:11.995Z,20.02
2023-05-19T16:13:11.921Z,19.93
2023-05-19T16:14:12.010Z,19.80
2023-05-19T16:17:01.379Z,19.28
2023-05-19T16:18:00.508Z,19.51
2023-05-19T16:19:00.326Z,19.52
2023-05-19T16:27:37.270Z,18.86
2023-05-19T16:28:36.985Z,18.94
2023-05-19T16:29:36.990Z,18.91
2023-05-19T16:30:37.521Z,18.96
2023-05-19T16:32:56.436Z,19.20
2023-05-19T16:35:40.177Z,19.10
2023-05-19T16:36:40.083Z,19.36
2023-05-19T16:39:37.578Z,18.85
2023-05-19T16:41:55.515Z,18.74
2023-05-19T16:42:55.415Z,18.72
2023-05-19T16:43:55.320Z,18.82
2023-05-19T16:46:47.262Z,18.68
2023-05-19T16:51:24.570Z,18.48
2023-05-19T16:52:12.074Z,18.42
2023-05-19T16:54:31.448Z,18.00
2023-05-19T16:55:31.617Z,18.02
2023-05-19T17:00:29.524Z,18.30
2023-05-19T17:01:29.625Z,18.42
2023-05-19T17:02:29.672Z,18.27
2023-05-19T17:03:29.773Z,18.05
2023-05-19T17:04:30.763Z,17.92
2023-05-19T17:05:30.247Z,17.78
2023-05-19T17:06:29.479Z,17.82
2023-05-19T17:07:29.456Z,17.82
2023-05-19T17:08:29.508Z,17.82
2023-05-19T17:09:29.437Z,17.84
2023-05-19T17:10:29.422Z,17.85
2023-05-19T17:11:29.495Z,17.86
2023-05-19T17:12:29.426Z,17.90
2023-05-19T17:13:29.417Z,17.96
2023-05-19T17:14:29.397Z,17.99
2023-05-19T17:15:29.405Z,17.96
2023-05-19T17:16:29.444Z,17.92
2023-05-19T17:17:29.424Z,17.79
2023-05-19T17:18:29.345Z,17.80
2023-05-19T17:19:29.406Z,17.82
2023-05-19T17:20:29.464Z,17.84
2023-05-19T17:21:29.364Z,17.70
2023-05-19T17:22:30.327Z,17.56
2023-05-19T17:23:29.450Z,17.49
2023-05-19T17:24:29.353Z,17.58
2023-05-19T17:25:29.370Z,17.63
2023-05-19T17:26:29.328Z,17.70
2023-05-19T17:27:29.309Z,17.71
2023-05-19T17:28:29.326Z,17.51
2023-05-19T17:29:29.325Z,17.38
2023-05-19T17:30:29.313Z,17.10
2023-05-19T17:31:29.324Z,17.04
2023-05-19T17:32:30.089Z,17.01
2023-05-19T17:34:49.408Z,16.99
2023-05-19T17:44:02.403Z,16.58
2023-05-19T17:45:01.982Z,16.70
2023-05-19T17:51:53.253Z,16.81
2023-05-19T17:56:45.991Z,16.57
2023-05-19T17:57:45.909Z,16.55
2023-05-19T17:58:45.906Z,16.54
2023-05-19T18:01:33.665Z,16.38
2023-05-19T18:02:33.444Z,16.51
2023-05-19T18:03:33.631Z,16.79
2023-05-19T18:04:33.346Z,16.89
2023-05-19T18:06:52.945Z,17.06
2023-05-19T18:07:52.764Z,16.95
2023-05-19T18:08:52.818Z,16.72
2023-05-19T18:12:33.164Z,16.18
2023-05-19T18:13:32.991Z,16.31
2023-05-19T18:20:17.171Z,16.65
2023-05-19T18:21:16.989Z,16.81
2023-05-19T18:22:16.971Z,16.68
2023-05-19T18:30:26.811Z,16.02
2023-05-19T18:32:44.823Z,16.46
2023-05-19T18:33:44.693Z,16.56
2023-05-19T18:34:44.649Z,16.56
2023-05-19T18:35:44.634Z,16.44
2023-05-19T18:38:36.856Z,15.97
2023-05-19T18:39:36.696Z,16.11
2023-05-19T18:40:37.285Z,16.10
2023-05-19T18:41:36.711Z,16.06
2023-05-19T18:50:03.317Z,16.03
2023-05-19T18:53:34.144Z,16.02
2023-05-19T18:54:33.682Z,16.01
2023-05-19T18:59:42.640Z,16.51
2023-05-19T19:07:13.668Z,15.57
2023-05-19T19:08:13.375Z,15.75
2023-05-19T19:10:33.318Z,16.08
2023-05-19T19:11:33.149Z,16.19
2023-05-19T19:12:33.107Z,16.27
2023-05-19T19:14:52.691Z,15.70
2023-05-19T19:17:41.570Z,15.48
2023-05-19T19:20:00.787Z,15.33
2023-05-19T19:21:01.080Z,15.35
2023-05-19T19:22:00.672Z,15.42
2023-05-19T19:23:00.628Z,15.42
2023-05-19T19:24:00.581Z,15.56
2023-05-19T19:25:00.591Z,15.55
2023-05-19T19:26:00.670Z,15.51
2023-05-19T19:27:00.593Z,15.52
2023-05-19T19:28:00.595Z,15.52
2023-05-19T19:29:00.645Z,15.58
2023-05-19T19:30:00.614Z,15.60
2023-05-19T19:31:00.609Z,15.63
2023-05-19T19:32:00.733Z,15.64
2023-05-19T19:33:00.563Z,15.66
2023-05-19T19:34:00.534Z,15.65
2023-05-19T19:35:00.546Z,15.54
2023-05-19T19:36:00.532Z,15.55
2023-05-19T19:37:00.571Z,15.61
2023-05-19T19:38:00.570Z,15.66
2023-05-19T19:39:00.537Z,15.70
2023-05-19T19:40:00.577Z,15.77
2023-05-19T19:41:00.480Z,15.72
2023-05-19T19:42:00.495Z,15.54
2023-05-19T19:43:00.489Z,15.50
2023-05-19T19:44:00.491Z,15.42
2023-05-19T19:45:00.466Z,15.41
2023-05-19T19:46:00.871Z,15.46
2023-05-19T19:47:00.415Z,15.48
2023-05-19T19:48:00.466Z,15.49
2023-05-19T19:49:00.471Z,15.55
2023-05-19T19:50:01.302Z,15.58
2023-05-19T19:51:00.405Z,15.58
2023-05-19T19:52:00.386Z,15.55
2023-05-19T19:53:00.378Z,15.65
2023-05-19T19:54:00.369Z,15.68
2023-05-19T19:55:00.512Z,15.62
2023-05-19T19:56:01.319Z,15.60
2023-05-19T19:57:00.385Z,15.57
2023-05-19T19:58:00.401Z,15.60
2023-05-19T19:59:00.386Z,15.57
2023-05-19T20:00:00.402Z,15.56
2023-05-19T20:01:00.418Z,15.50
2023-05-19T20:02:00.480Z,15.42
2023-05-19T20:03:04.234Z,15.44
2023-05-19T20:06:39.327Z,15.66
2023-05-19T20:07:39.249Z,15.67
2023-05-19T20:12:27.900Z,15.26
2023-05-19T20:13:28.576Z,15.22
2023-05-19T20:14:27.693Z,15.26
2023-05-19T20:17:22.464Z,15.01
2023-05-19T20:18:22.154Z,15.19
2023-05-19T20:19:22.311Z,15.19
2023-05-19T20:20:22.243Z,15.22
2023-05-19T20:21:22.133Z,15.17
2023-05-19T20:22:22.123Z,15.18
2023-05-19T20:23:22.081Z,15.18
2023-05-19T20:28:14.468Z,14.80
2023-05-19T20:29:14.292Z,14.89
2023-05-19T20:32:05.711Z,14.59
2023-05-19T20:34:25.058Z,14.71
2023-05-19T20:35:25.016Z,14.72